sensor_id;sensor_type;location;lat;lon;timestamp;temperature;humidity
28374;DHT22;15616;40.148;-102.718;2023-05-23T00:00:54;22.60;52.90
28374;DHT22;15616;40.148;-102.718;2023-05-23T00:03:20;22.60;52.90
28374;DHT22;15616;40.148;-102.718;2023-05-23T00:05:49;22.60;52.90
28374;DHT22;15616;40.148;-102.718;2023-05-23T00:08:15;22.60;53.00
28374;DHT22;15616;40.148;-102.718;2023-05-23T00:10:42;22.60;53.00
28374;DHT22;15616;40.148;-102.718;2023-05-23T00:13:07;22.60;53.00
28374;DHT22;15616;40.148;-102.718;2023-05-23T00:15:34;22.60;53.00
28374;DHT22;15616;40.148;-102.718;2023-05-23T00:18:01;22.60;53.00
28374;DHT22;15616;40.148;-102.718;2023-05-23T00:20:27;22.60;53.00
28374;DHT22;15616;40.148;-102.718;2023-05-23T00:22:53;22.60;53.00
28374;DHT22;15616;40.148;-102.718;2023-05-23T00:25:25;22.60;53.10
28374;DHT22;15616;40.148;-102.718;2023-05-23T00:28:07;22.60;53.00
28374;DHT22;15616;40.148;-102.718;2023-05-23T00:30:32;22.60;53.00
28374;DHT22;15616;40.148;-102.718;2023-05-23T00:32:58;22.60;53.00
28374;DHT22;15616;40.148;-102.718;2023-05-23T00:35:24;22.50;53.00
28374;DHT22;15616;40.148;-102.718;2023-05-23T00:37:50;22.50;53.00
28374;DHT22;15616;40.148;-102.718;2023-05-23T00:40:16;22.50;53.10
28374;DHT22;15616;40.148;-102.718;2023-05-23T00:42:42;22.50;53.00
28374;DHT22;15616;40.148;-102.718;2023-05-23T00:45:08;22.50;53.00
28374;DHT22;15616;40.148;-102.718;2023-05-23T00:47:34;22.60;53.10
28374;DHT22;15616;40.148;-102.718;2023-05-23T00:49:59;22.50;53.00
28374;DHT22;15616;40.148;-102.718;2023-05-23T00:52:25;22.50;53.10
28374;DHT22;15616;40.148;-102.718;2023-05-23T00:54:51;22.50;53.10
28374;DHT22;15616;40.148;-102.718;2023-05-23T00:57:16;22.50;53.00
28374;DHT22;15616;40.148;-102.718;2023-05-23T00:59:42;22.50;53.10
28374;DHT22;15616;40.148;-102.718;2023-05-23T01:02:09;22.50;53.00
28374;DHT22;15616;40.148;-102.718;2023-05-23T01:04:37;22.50;53.10
28374;DHT22;15616;40.148;-102.718;2023-05-23T01:07:03;22.50;53.10
28374;DHT22;15616;40.148;-102.718;2023-05-23T01:09:29;22.50;53.10
28374;DHT22;15616;40.148;-102.718;2023-05-23T01:14:22;22.50;53.10
28374;DHT22;15616;40.148;-102.718;2023-05-23T01:17:01;22.50;53.20
28374;DHT22;15616;40.148;-102.718;2023-05-23T01:22:05;22.50;53.20
28374;DHT22;15616;40.148;-102.718;2023-05-23T01:24:35;22.50;53.20
28374;DHT22;15616;40.148;-102.718;2023-05-23T01:27:14;22.50;53.20
28374;DHT22;15616;40.148;-102.718;2023-05-23T01:29:48;22.50;53.20
28374;DHT22;15616;40.148;-102.718;2023-05-23T01:32:16;22.50;53.20
28374;DHT22;15616;40.148;-102.718;2023-05-23T01:34:43;22.50;53.30
28374;DHT22;15616;40.148;-102.718;2023-05-23T01:37:10;22.40;53.20
28374;DHT22;15616;40.148;-102.718;2023-05-23T01:39:36;22.50;53.30
28374;DHT22;15616;40.148;-102.718;2023-05-23T01:42:02;22.50;53.30
28374;DHT22;15616;40.148;-102.718;2023-05-23T01:44:28;22.50;53.20
28374;DHT22;15616;40.148;-102.718;2023-05-23T01:46:54;22.40;53.20
28374;DHT22;15616;40.148;-102.718;2023-05-23T01:49:20;22.40;53.20
28374;DHT22;15616;40.148;-102.718;2023-05-23T01:51:47;22.40;53.20
28374;DHT22;15616;40.148;-102.718;2023-05-23T01:54:13;22.40;53.20
28374;DHT22;15616;40.148;-102.718;2023-05-23T01:56:41;22.40;53.20
28374;DHT22;15616;40.148;-102.718;2023-05-23T01:59:07;22.40;53.20
28374;DHT22;15616;40.148;-102.718;2023-05-23T02:01:33;22.40;53.20
28374;DHT22;15616;40.148;-102.718;2023-05-23T02:03:59;22.50;53.30
28374;DHT22;15616;40.148;-102.718;2023-05-23T02:06:25;22.40;53.20
28374;DHT22;15616;40.148;-102.718;2023-05-23T02:08:50;22.40;53.30
28374;DHT22;15616;40.148;-102.718;2023-05-23T02:11:16;22.40;53.30
28374;DHT22;15616;40.148;-102.718;2023-05-23T02:13:42;22.40;53.30
28374;DHT22;15616;40.148;-102.718;2023-05-23T02:16:08;22.40;53.30
28374;DHT22;15616;40.148;-102.718;2023-05-23T02:18:33;22.40;53.30
28374;DHT22;15616;40.148;-102.718;2023-05-23T02:21:03;22.40;53.30
28374;DHT22;15616;40.148;-102.718;2023-05-23T02:23:29;22.40;53.30
28374;DHT22;15616;40.148;-102.718;2023-05-23T02:25:54;22.40;53.30
28374;DHT22;15616;40.148;-102.718;2023-05-23T02:28:20;22.40;53.30
28374;DHT22;15616;40.148;-102.718;2023-05-23T02:30:46;22.40;53.30
28374;DHT22;15616;40.148;-102.718;2023-05-23T02:33:12;22.40;53.30
28374;DHT22;15616;40.148;-102.718;2023-05-23T02:35:38;22.40;53.30
28374;DHT22;15616;40.148;-102.718;2023-05-23T02:38:04;22.40;53.30
28374;DHT22;15616;40.148;-102.718;2023-05-23T02:40:30;22.40;53.40
28374;DHT22;15616;40.148;-102.718;2023-05-23T02:42:55;22.40;53.30
28374;DHT22;15616;40.148;-102.718;2023-05-23T02:45:22;22.40;53.30
28374;DHT22;15616;40.148;-102.718;2023-05-23T02:47:48;22.40;53.30
28374;DHT22;15616;40.148;-102.718;2023-05-23T02:50:14;22.40;53.30
28374;DHT22;15616;40.148;-102.718;2023-05-23T02:52:40;22.40;53.30
28374;DHT22;15616;40.148;-102.718;2023-05-23T02:55:07;22.40;53.30
28374;DHT22;15616;40.148;-102.718;2023-05-23T02:57:32;22.40;53.40
28374;DHT22;15616;40.148;-102.718;2023-05-23T02:59:58;22.30;53.30
28374;DHT22;15616;40.148;-102.718;2023-05-23T03:02:24;22.40;53.40
28374;DHT22;15616;40.148;-102.718;2023-05-23T03:04:51;22.30;53.30
28374;DHT22;15616;40.148;-102.718;2023-05-23T03:07:16;22.40;53.40
28374;DHT22;15616;40.148;-102.718;2023-05-23T03:09:42;22.30;53.30
28374;DHT22;15616;40.148;-102.718;2023-05-23T03:12:08;22.30;53.40
28374;DHT22;15616;40.148;-102.718;2023-05-23T03:14:33;22.40;53.40
28374;DHT22;15616;40.148;-102.718;2023-05-23T03:16:59;22.30;53.40
28374;DHT22;15616;40.148;-102.718;2023-05-23T03:19:25;22.30;53.40
28374;DHT22;15616;40.148;-102.718;2023-05-23T03:21:50;22.30;53.40
28374;DHT22;15616;40.148;-102.718;2023-05-23T03:24:16;22.30;53.40
28374;DHT22;15616;40.148;-102.718;2023-05-23T03:26:42;22.40;53.50
28374;DHT22;15616;40.148;-102.718;2023-05-23T03:29:08;22.40;53.40
28374;DHT22;15616;40.148;-102.718;2023-05-23T03:31:35;22.40;53.40
28374;DHT22;15616;40.148;-102.718;2023-05-23T03:34:01;22.40;53.40
28374;DHT22;15616;40.148;-102.718;2023-05-23T03:36:27;22.30;53.40
28374;DHT22;15616;40.148;-102.718;2023-05-23T03:38:52;22.40;53.50
28374;DHT22;15616;40.148;-102.718;2023-05-23T03:41:18;22.40;53.50
28374;DHT22;15616;40.148;-102.718;2023-05-23T03:43:44;22.40;53.50
28374;DHT22;15616;40.148;-102.718;2023-05-23T03:46:10;22.40;53.40
28374;DHT22;15616;40.148;-102.718;2023-05-23T03:48:36;22.30;53.40
28374;DHT22;15616;40.148;-102.718;2023-05-23T03:51:01;22.30;53.50
28374;DHT22;15616;40.148;-102.718;2023-05-23T03:53:27;22.30;53.40
28374;DHT22;15616;40.148;-102.718;2023-05-23T03:55:53;22.40;53.50
28374;DHT22;15616;40.148;-102.718;2023-05-23T03:58:19;22.30;53.50
28374;DHT22;15616;40.148;-102.718;2023-05-23T04:00:45;22.40;53.50
28374;DHT22;15616;40.148;-102.718;2023-05-23T04:03:11;22.30;53.40
28374;DHT22;15616;40.148;-102.718;2023-05-23T04:05:39;22.30;53.40
28374;DHT22;15616;40.148;-102.718;2023-05-23T04:08:05;22.30;53.40
28374;DHT22;15616;40.148;-102.718;2023-05-23T04:10:31;22.30;53.40
28374;DHT22;15616;40.148;-102.718;2023-05-23T04:12:56;22.30;53.40
28374;DHT22;15616;40.148;-102.718;2023-05-23T04:15:23;22.30;53.50
28374;DHT22;15616;40.148;-102.718;2023-05-23T04:17:49;22.30;53.50
28374;DHT22;15616;40.148;-102.718;2023-05-23T04:20:15;22.30;53.50
28374;DHT22;15616;40.148;-102.718;2023-05-23T04:22:41;22.30;53.50
28374;DHT22;15616;40.148;-102.718;2023-05-23T04:25:07;22.30;53.40
28374;DHT22;15616;40.148;-102.718;2023-05-23T04:27:34;22.30;53.40
28374;DHT22;15616;40.148;-102.718;2023-05-23T04:29:59;22.30;53.40
28374;DHT22;15616;40.148;-102.718;2023-05-23T04:32:25;22.30;53.40
28374;DHT22;15616;40.148;-102.718;2023-05-23T04:34:51;22.30;53.40
28374;DHT22;15616;40.148;-102.718;2023-05-23T04:37:17;22.20;53.40
28374;DHT22;15616;40.148;-102.718;2023-05-23T04:39:47;22.20;53.40
28374;DHT22;15616;40.148;-102.718;2023-05-23T04:42:12;22.20;53.40
28374;DHT22;15616;40.148;-102.718;2023-05-23T04:44:38;22.20;53.40
28374;DHT22;15616;40.148;-102.718;2023-05-23T04:47:04;22.20;53.40
28374;DHT22;15616;40.148;-102.718;2023-05-23T04:49:30;22.20;53.40
28374;DHT22;15616;40.148;-102.718;2023-05-23T04:51:58;22.20;53.40
28374;DHT22;15616;40.148;-102.718;2023-05-23T04:54:24;22.20;53.30
28374;DHT22;15616;40.148;-102.718;2023-05-23T04:56:50;22.20;53.40
28374;DHT22;15616;40.148;-102.718;2023-05-23T04:59:16;22.20;53.40
28374;DHT22;15616;40.148;-102.718;2023-05-23T05:01:41;22.30;53.40
28374;DHT22;15616;40.148;-102.718;2023-05-23T05:04:07;22.20;53.30
28374;DHT22;15616;40.148;-102.718;2023-05-23T05:06:33;22.30;53.30
28374;DHT22;15616;40.148;-102.718;2023-05-23T05:08:58;22.30;53.30
28374;DHT22;15616;40.148;-102.718;2023-05-23T05:11:25;22.30;53.20
28374;DHT22;15616;40.148;-102.718;2023-05-23T05:13:51;22.30;53.20
28374;DHT22;15616;40.148;-102.718;2023-05-23T05:16:17;22.20;53.30
28374;DHT22;15616;40.148;-102.718;2023-05-23T05:18:42;22.20;53.30
28374;DHT22;15616;40.148;-102.718;2023-05-23T05:21:08;22.20;53.30
28374;DHT22;15616;40.148;-102.718;2023-05-23T05:23:34;22.20;53.30
28374;DHT22;15616;40.148;-102.718;2023-05-23T05:26:00;22.20;53.30
28374;DHT22;15616;40.148;-102.718;2023-05-23T05:28:26;22.20;53.20
28374;DHT22;15616;40.148;-102.718;2023-05-23T05:30:51;22.20;53.90
28374;DHT22;15616;40.148;-102.718;2023-05-23T05:33:20;22.20;53.20
28374;DHT22;15616;40.148;-102.718;2023-05-23T05:35:48;22.20;53.20
28374;DHT22;15616;40.148;-102.718;2023-05-23T05:38:16;22.20;53.30
28374;DHT22;15616;40.148;-102.718;2023-05-23T05:40:41;22.20;53.30
28374;DHT22;15616;40.148;-102.718;2023-05-23T05:43:07;22.20;53.20
28374;DHT22;15616;40.148;-102.718;2023-05-23T05:45:34;22.20;53.20
28374;DHT22;15616;40.148;-102.718;2023-05-23T05:48:00;22.20;53.20
28374;DHT22;15616;40.148;-102.718;2023-05-23T05:50:26;22.30;53.30
28374;DHT22;15616;40.148;-102.718;2023-05-23T05:52:52;22.20;53.20
28374;DHT22;15616;40.148;-102.718;2023-05-23T05:55:18;22.20;53.20
28374;DHT22;15616;40.148;-102.718;2023-05-23T05:57:43;22.20;53.20
28374;DHT22;15616;40.148;-102.718;2023-05-23T06:00:10;22.20;53.20
28374;DHT22;15616;40.148;-102.718;2023-05-23T06:02:45;22.20;53.10
28374;DHT22;15616;40.148;-102.718;2023-05-23T06:05:16;22.20;53.10
28374;DHT22;15616;40.148;-102.718;2023-05-23T06:07:42;22.20;53.00
28374;DHT22;15616;40.148;-102.718;2023-05-23T06:10:08;22.20;53.10
28374;DHT22;15616;40.148;-102.718;2023-05-23T06:12:37;22.20;53.10
28374;DHT22;15616;40.148;-102.718;2023-05-23T06:15:03;22.20;53.10
28374;DHT22;15616;40.148;-102.718;2023-05-23T06:17:29;22.20;53.10
28374;DHT22;15616;40.148;-102.718;2023-05-23T06:19:55;22.20;53.10
28374;DHT22;15616;40.148;-102.718;2023-05-23T06:22:21;22.20;53.00
28374;DHT22;15616;40.148;-102.718;2023-05-23T06:24:46;22.20;53.00
28374;DHT22;15616;40.148;-102.718;2023-05-23T06:27:12;22.20;53.60
28374;DHT22;15616;40.148;-102.718;2023-05-23T06:29:38;22.20;53.00
28374;DHT22;15616;40.148;-102.718;2023-05-23T06:32:04;22.20;52.90
28374;DHT22;15616;40.148;-102.718;2023-05-23T06:34:30;22.20;52.90
28374;DHT22;15616;40.148;-102.718;2023-05-23T06:36:55;22.20;52.90
28374;DHT22;15616;40.148;-102.718;2023-05-23T06:39:21;22.20;52.90
28374;DHT22;15616;40.148;-102.718;2023-05-23T06:41:47;22.20;52.90
28374;DHT22;15616;40.148;-102.718;2023-05-23T06:44:13;22.20;52.90
28374;DHT22;15616;40.148;-102.718;2023-05-23T06:46:39;22.20;52.80
28374;DHT22;15616;40.148;-102.718;2023-05-23T06:49:05;22.20;52.80
28374;DHT22;15616;40.148;-102.718;2023-05-23T06:51:31;22.20;52.80
28374;DHT22;15616;40.148;-102.718;2023-05-23T06:53:56;22.20;52.70
28374;DHT22;15616;40.148;-102.718;2023-05-23T06:56:22;22.20;52.70
28374;DHT22;15616;40.148;-102.718;2023-05-23T06:58:48;22.20;52.70
28374;DHT22;15616;40.148;-102.718;2023-05-23T07:01:14;22.20;52.70
28374;DHT22;15616;40.148;-102.718;2023-05-23T07:03:39;22.20;52.70
28374;DHT22;15616;40.148;-102.718;2023-05-23T07:06:07;22.20;52.70
28374;DHT22;15616;40.148;-102.718;2023-05-23T07:08:33;22.20;52.60
28374;DHT22;15616;40.148;-102.718;2023-05-23T07:10:59;22.20;52.60
28374;DHT22;15616;40.148;-102.718;2023-05-23T07:13:25;22.20;52.60
28374;DHT22;15616;40.148;-102.718;2023-05-23T07:15:50;22.20;52.60
28374;DHT22;15616;40.148;-102.718;2023-05-23T07:18:16;22.20;52.60
28374;DHT22;15616;40.148;-102.718;2023-05-23T07:20:42;22.20;52.60
28374;DHT22;15616;40.148;-102.718;2023-05-23T07:23:08;22.20;52.60
28374;DHT22;15616;40.148;-102.718;2023-05-23T07:25:34;22.20;52.50
28374;DHT22;15616;40.148;-102.718;2023-05-23T07:27:59;22.20;52.50
28374;DHT22;15616;40.148;-102.718;2023-05-23T07:30:25;22.20;52.50
28374;DHT22;15616;40.148;-102.718;2023-05-23T07:32:51;22.20;52.50
28374;DHT22;15616;40.148;-102.718;2023-05-23T07:35:17;22.20;52.50
28374;DHT22;15616;40.148;-102.718;2023-05-23T07:37:43;22.20;52.40
28374;DHT22;15616;40.148;-102.718;2023-05-23T07:40:08;22.20;52.40
28374;DHT22;15616;40.148;-102.718;2023-05-23T07:42:35;22.20;52.40
28374;DHT22;15616;40.148;-102.718;2023-05-23T07:45:01;22.20;52.40
28374;DHT22;15616;40.148;-102.718;2023-05-23T07:47:27;22.20;52.40
28374;DHT22;15616;40.148;-102.718;2023-05-23T07:49:53;22.20;52.40
28374;DHT22;15616;40.148;-102.718;2023-05-23T07:52:19;22.20;52.40
28374;DHT22;15616;40.148;-102.718;2023-05-23T07:54:45;22.20;52.30
28374;DHT22;15616;40.148;-102.718;2023-05-23T07:57:11;22.20;52.30
28374;DHT22;15616;40.148;-102.718;2023-05-23T07:59:37;22.20;52.30
28374;DHT22;15616;40.148;-102.718;2023-05-23T08:02:03;22.20;52.30
28374;DHT22;15616;40.148;-102.718;2023-05-23T08:04:29;22.20;52.30
28374;DHT22;15616;40.148;-102.718;2023-05-23T08:06:55;22.20;52.30
28374;DHT22;15616;40.148;-102.718;2023-05-23T08:09:24;22.20;52.30
28374;DHT22;15616;40.148;-102.718;2023-05-23T08:11:49;22.20;52.30
28374;DHT22;15616;40.148;-102.718;2023-05-23T08:14:15;22.20;52.30
28374;DHT22;15616;40.148;-102.718;2023-05-23T08:16:41;22.20;52.20
28374;DHT22;15616;40.148;-102.718;2023-05-23T08:19:07;22.20;52.20
28374;DHT22;15616;40.148;-102.718;2023-05-23T08:21:34;22.20;52.20
28374;DHT22;15616;40.148;-102.718;2023-05-23T08:24:00;22.20;52.20
28374;DHT22;15616;40.148;-102.718;2023-05-23T08:26:26;22.20;52.10
28374;DHT22;15616;40.148;-102.718;2023-05-23T08:29:01;22.20;52.10
28374;DHT22;15616;40.148;-102.718;2023-05-23T08:31:28;22.20;52.10
28374;DHT22;15616;40.148;-102.718;2023-05-23T08:33:54;22.20;52.10
28374;DHT22;15616;40.148;-102.718;2023-05-23T08:36:20;22.20;52.10
28374;DHT22;15616;40.148;-102.718;2023-05-23T08:38:45;22.20;52.10
28374;DHT22;15616;40.148;-102.718;2023-05-23T08:41:15;22.20;52.10
28374;DHT22;15616;40.148;-102.718;2023-05-23T08:43:43;22.20;52.10
28374;DHT22;15616;40.148;-102.718;2023-05-23T08:46:09;22.30;52.10
28374;DHT22;15616;40.148;-102.718;2023-05-23T08:48:34;22.20;51.90
28374;DHT22;15616;40.148;-102.718;2023-05-23T08:51:02;22.30;52.00
28374;DHT22;15616;40.148;-102.718;2023-05-23T08:53:28;22.30;51.90
28374;DHT22;15616;40.148;-102.718;2023-05-23T08:55:55;22.30;51.90
28374;DHT22;15616;40.148;-102.718;2023-05-23T08:58:29;22.30;51.80
28374;DHT22;15616;40.148;-102.718;2023-05-23T09:00:56;22.30;51.90
28374;DHT22;15616;40.148;-102.718;2023-05-23T09:03:24;22.30;51.90
28374;DHT22;15616;40.148;-102.718;2023-05-23T09:05:51;22.20;51.90
28374;DHT22;15616;40.148;-102.718;2023-05-23T09:08:18;22.20;51.90
28374;DHT22;15616;40.148;-102.718;2023-05-23T09:10:44;22.30;51.90
28374;DHT22;15616;40.148;-102.718;2023-05-23T09:13:10;22.30;51.80
28374;DHT22;15616;40.148;-102.718;2023-05-23T09:15:36;22.30;51.80
28374;DHT22;15616;40.148;-102.718;2023-05-23T09:18:02;22.30;51.70
28374;DHT22;15616;40.148;-102.718;2023-05-23T09:20:27;22.30;51.70
28374;DHT22;15616;40.148;-102.718;2023-05-23T09:22:53;22.30;51.70
28374;DHT22;15616;40.148;-102.718;2023-05-23T09:25:20;22.30;51.50
28374;DHT22;15616;40.148;-102.718;2023-05-23T09:27:45;22.30;51.50
28374;DHT22;15616;40.148;-102.718;2023-05-23T09:30:11;22.30;51.40
28374;DHT22;15616;40.148;-102.718;2023-05-23T09:32:38;22.30;51.40
28374;DHT22;15616;40.148;-102.718;2023-05-23T09:35:06;22.30;51.30
28374;DHT22;15616;40.148;-102.718;2023-05-23T09:37:37;22.30;51.20
28374;DHT22;15616;40.148;-102.718;2023-05-23T09:40:10;22.30;51.20
28374;DHT22;15616;40.148;-102.718;2023-05-23T09:42:43;22.30;51.20
28374;DHT22;15616;40.148;-102.718;2023-05-23T09:45:09;22.40;51.20
28374;DHT22;15616;40.148;-102.718;2023-05-23T09:47:35;22.40;51.20
28374;DHT22;15616;40.148;-102.718;2023-05-23T09:50:00;22.40;51.10
28374;DHT22;15616;40.148;-102.718;2023-05-23T09:52:26;22.40;51.10
28374;DHT22;15616;40.148;-102.718;2023-05-23T09:54:52;22.40;51.10
28374;DHT22;15616;40.148;-102.718;2023-05-23T09:57:19;22.40;51.10
28374;DHT22;15616;40.148;-102.718;2023-05-23T09:59:51;22.40;51.10
28374;DHT22;15616;40.148;-102.718;2023-05-23T10:02:20;22.40;51.00
28374;DHT22;15616;40.148;-102.718;2023-05-23T10:04:51;22.40;51.10
28374;DHT22;15616;40.148;-102.718;2023-05-23T10:07:17;22.40;51.00
28374;DHT22;15616;40.148;-102.718;2023-05-23T10:09:46;22.40;51.00
28374;DHT22;15616;40.148;-102.718;2023-05-23T10:14:39;22.40;50.90
28374;DHT22;15616;40.148;-102.718;2023-05-23T10:17:11;22.40;50.90
28374;DHT22;15616;40.148;-102.718;2023-05-23T10:19:44;22.40;50.70
28374;DHT22;15616;40.148;-102.718;2023-05-23T10:22:12;22.50;50.70
28374;DHT22;15616;40.148;-102.718;2023-05-23T10:24:39;22.50;50.70
28374;DHT22;15616;40.148;-102.718;2023-05-23T10:27:05;22.50;50.60
28374;DHT22;15616;40.148;-102.718;2023-05-23T10:29:30;22.50;50.70
28374;DHT22;15616;40.148;-102.718;2023-05-23T10:31:58;22.40;50.60
28374;DHT22;15616;40.148;-102.718;2023-05-23T10:34:36;22.40;50.60
28374;DHT22;15616;40.148;-102.718;2023-05-23T10:37:05;22.50;50.70
28374;DHT22;15616;40.148;-102.718;2023-05-23T10:42:18;22.50;50.50
28374;DHT22;15616;40.148;-102.718;2023-05-23T10:44:45;22.50;50.40
28374;DHT22;15616;40.148;-102.718;2023-05-23T10:47:10;22.50;50.40
28374;DHT22;15616;40.148;-102.718;2023-05-23T10:49:40;22.60;50.30
28374;DHT22;15616;40.148;-102.718;2023-05-23T10:52:07;22.50;50.30
28374;DHT22;15616;40.148;-102.718;2023-05-23T10:54:37;22.50;50.30
28374;DHT22;15616;40.148;-102.718;2023-05-23T10:57:06;22.60;50.30
28374;DHT22;15616;40.148;-102.718;2023-05-23T10:59:34;22.60;50.20
28374;DHT22;15616;40.148;-102.718;2023-05-23T11:02:01;22.60;50.20
28374;DHT22;15616;40.148;-102.718;2023-05-23T11:04:28;22.60;50.10
28374;DHT22;15616;40.148;-102.718;2023-05-23T11:06:54;22.60;50.00
28374;DHT22;15616;40.148;-102.718;2023-05-23T11:09:21;22.60;49.90
28374;DHT22;15616;40.148;-102.718;2023-05-23T11:14:19;22.60;49.80
28374;DHT22;15616;40.148;-102.718;2023-05-23T11:16:45;22.70;49.70
28374;DHT22;15616;40.148;-102.718;2023-05-23T11:21:53;22.70;49.60
28374;DHT22;15616;40.148;-102.718;2023-05-23T11:24:20;22.70;49.50
28374;DHT22;15616;40.148;-102.718;2023-05-23T11:26:56;22.70;49.40
28374;DHT22;15616;40.148;-102.718;2023-05-23T11:29:25;22.70;49.40
28374;DHT22;15616;40.148;-102.718;2023-05-23T11:31:51;22.70;49.30
28374;DHT22;15616;40.148;-102.718;2023-05-23T11:34:17;22.70;49.40
28374;DHT22;15616;40.148;-102.718;2023-05-23T11:36:43;22.70;49.30
28374;DHT22;15616;40.148;-102.718;2023-05-23T11:39:10;22.70;49.20
28374;DHT22;15616;40.148;-102.718;2023-05-23T11:41:35;22.70;49.20
28374;DHT22;15616;40.148;-102.718;2023-05-23T11:44:08;22.70;49.20
28374;DHT22;15616;40.148;-102.718;2023-05-23T11:46:35;22.70;49.10
28374;DHT22;15616;40.148;-102.718;2023-05-23T11:49:00;22.70;49.10
28374;DHT22;15616;40.148;-102.718;2023-05-23T11:51:26;22.70;49.10
28374;DHT22;15616;40.148;-102.718;2023-05-23T11:53:53;22.70;49.20
28374;DHT22;15616;40.148;-102.718;2023-05-23T11:56:19;22.70;49.20
28374;DHT22;15616;40.148;-102.718;2023-05-23T11:58:45;22.70;49.10
28374;DHT22;15616;40.148;-102.718;2023-05-23T12:01:11;22.70;49.00
28374;DHT22;15616;40.148;-102.718;2023-05-23T12:03:44;22.70;49.00
28374;DHT22;15616;40.148;-102.718;2023-05-23T12:06:13;22.70;49.00
28374;DHT22;15616;40.148;-102.718;2023-05-23T12:08:39;22.70;49.00
28374;DHT22;15616;40.148;-102.718;2023-05-23T12:11:05;22.70;49.00
28374;DHT22;15616;40.148;-102.718;2023-05-23T12:13:31;22.70;48.90
28374;DHT22;15616;40.148;-102.718;2023-05-23T12:16:00;22.70;48.80
28374;DHT22;15616;40.148;-102.718;2023-05-23T12:18:27;22.70;48.70
28374;DHT22;15616;40.148;-102.718;2023-05-23T12:20:54;22.70;48.70
28374;DHT22;15616;40.148;-102.718;2023-05-23T12:23:20;22.80;48.70
28374;DHT22;15616;40.148;-102.718;2023-05-23T12:25:48;22.70;48.70
28374;DHT22;15616;40.148;-102.718;2023-05-23T12:28:14;22.70;48.80
28374;DHT22;15616;40.148;-102.718;2023-05-23T12:30:40;22.70;48.90
28374;DHT22;15616;40.148;-102.718;2023-05-23T12:33:07;22.70;48.90
28374;DHT22;15616;40.148;-102.718;2023-05-23T12:35:33;22.70;48.80
28374;DHT22;15616;40.148;-102.718;2023-05-23T12:37:58;22.70;48.80
28374;DHT22;15616;40.148;-102.718;2023-05-23T12:40:24;22.70;48.70
28374;DHT22;15616;40.148;-102.718;2023-05-23T12:42:53;22.80;48.80
28374;DHT22;15616;40.148;-102.718;2023-05-23T12:45:20;22.80;48.70
28374;DHT22;15616;40.148;-102.718;2023-05-23T12:47:46;22.80;48.70
28374;DHT22;15616;40.148;-102.718;2023-05-23T12:50:12;22.80;48.70
28374;DHT22;15616;40.148;-102.718;2023-05-23T12:52:38;22.80;48.60
28374;DHT22;15616;40.148;-102.718;2023-05-23T12:55:04;22.80;48.50
28374;DHT22;15616;40.148;-102.718;2023-05-23T12:57:31;22.90;48.60
28374;DHT22;15616;40.148;-102.718;2023-05-23T12:59:57;22.90;48.50
28374;DHT22;15616;40.148;-102.718;2023-05-23T13:02:23;22.80;48.50
28374;DHT22;15616;40.148;-102.718;2023-05-23T13:04:49;22.80;49.30
28374;DHT22;15616;40.148;-102.718;2023-05-23T13:07:15;22.80;48.60
28374;DHT22;15616;40.148;-102.718;2023-05-23T13:09:40;22.80;48.60
28374;DHT22;15616;40.148;-102.718;2023-05-23T13:12:06;22.80;48.60
28374;DHT22;15616;40.148;-102.718;2023-05-23T13:14:32;22.80;48.50
28374;DHT22;15616;40.148;-102.718;2023-05-23T13:16:57;22.80;48.60
28374;DHT22;15616;40.148;-102.718;2023-05-23T13:19:23;22.80;48.50
28374;DHT22;15616;40.148;-102.718;2023-05-23T13:21:49;22.80;48.50
28374;DHT22;15616;40.148;-102.718;2023-05-23T13:24:15;22.80;48.50
28374;DHT22;15616;40.148;-102.718;2023-05-23T13:26:40;22.80;48.40
28374;DHT22;15616;40.148;-102.718;2023-05-23T13:29:06;22.80;48.30
28374;DHT22;15616;40.148;-102.718;2023-05-23T13:31:32;22.90;48.30
28374;DHT22;15616;40.148;-102.718;2023-05-23T13:33:57;22.90;48.40
28374;DHT22;15616;40.148;-102.718;2023-05-23T13:36:23;22.90;48.30
28374;DHT22;15616;40.148;-102.718;2023-05-23T13:38:50;22.90;48.20
28374;DHT22;15616;40.148;-102.718;2023-05-23T13:41:15;23.00;48.20
28374;DHT22;15616;40.148;-102.718;2023-05-23T13:43:41;22.90;48.10
28374;DHT22;15616;40.148;-102.718;2023-05-23T13:46:07;22.90;48.20
28374;DHT22;15616;40.148;-102.718;2023-05-23T13:48:32;22.90;48.30
28374;DHT22;15616;40.148;-102.718;2023-05-23T13:50:59;22.90;48.30
28374;DHT22;15616;40.148;-102.718;2023-05-23T13:53:25;22.90;48.50
28374;DHT22;15616;40.148;-102.718;2023-05-23T13:55:51;22.90;48.60
28374;DHT22;15616;40.148;-102.718;2023-05-23T13:58:17;22.90;48.50
28374;DHT22;15616;40.148;-102.718;2023-05-23T14:00:43;22.90;48.50
28374;DHT22;15616;40.148;-102.718;2023-05-23T14:03:11;22.90;48.40
28374;DHT22;15616;40.148;-102.718;2023-05-23T14:05:37;22.90;48.50
28374;DHT22;15616;40.148;-102.718;2023-05-23T14:08:03;22.90;48.40
28374;DHT22;15616;40.148;-102.718;2023-05-23T14:10:29;22.90;48.40
28374;DHT22;15616;40.148;-102.718;2023-05-23T14:12:54;22.90;48.30
28374;DHT22;15616;40.148;-102.718;2023-05-23T14:15:20;22.90;48.20
28374;DHT22;15616;40.148;-102.718;2023-05-23T14:17:46;22.90;48.10
28374;DHT22;15616;40.148;-102.718;2023-05-23T14:20:12;22.90;48.00
28374;DHT22;15616;40.148;-102.718;2023-05-23T14:22:37;23.00;48.00
28374;DHT22;15616;40.148;-102.718;2023-05-23T14:25:04;22.90;47.90
28374;DHT22;15616;40.148;-102.718;2023-05-23T14:27:31;22.90;47.90
28374;DHT22;15616;40.148;-102.718;2023-05-23T14:29:56;22.90;48.00
28374;DHT22;15616;40.148;-102.718;2023-05-23T14:32:22;22.90;47.90
28374;DHT22;15616;40.148;-102.718;2023-05-23T14:34:48;22.90;47.80
28374;DHT22;15616;40.148;-102.718;2023-05-23T14:37:13;23.00;47.80
28374;DHT22;15616;40.148;-102.718;2023-05-23T14:39:39;23.00;47.80
28374;DHT22;15616;40.148;-102.718;2023-05-23T14:42:05;23.00;47.80
28374;DHT22;15616;40.148;-102.718;2023-05-23T14:44:31;23.00;47.70
28374;DHT22;15616;40.148;-102.718;2023-05-23T14:46:56;23.00;47.60
28374;DHT22;15616;40.148;-102.718;2023-05-23T14:49:22;23.00;47.60
28374;DHT22;15616;40.148;-102.718;2023-05-23T14:51:48;23.00;47.70
28374;DHT22;15616;40.148;-102.718;2023-05-23T14:54:13;23.00;47.80
28374;DHT22;15616;40.148;-102.718;2023-05-23T14:56:40;23.00;47.80
28374;DHT22;15616;40.148;-102.718;2023-05-23T14:59:07;23.00;48.60